Time;durP1;ratioP1;P1;durP2;ratioP2;P2;SDS_P1;SDS_P2;PMS_P1;PMS_P2;Temp;Humidity;BMP_temperature;BMP_pressure;BME280_temperature;BME280_humidity;BME280_pressure;Samples;Min_cycle;Max_cycle;Signal;HPM_P1;HPM_P2
2022/03/27 00:01:41;;;;;;;0.57;0.57;;;7.30;62.30;;;;;;5095908;28;20537;-85
2022/03/27 00:04:08;;;;;;;2.60;0.63;;;7.30;62.30;;;;;;5096432;28;20453;-85
2022/03/27 00:06:35;;;;;;;0.60;0.60;;;7.30;62.30;;;;;;5096653;28;20448;-85
2022/03/27 00:09:04;;;;;;;0.50;0.50;;;7.30;62.80;;;;;;5095982;28;20471;-86
2022/03/27 00:11:31;;;;;;;0.70;0.70;;;7.20;63.20;;;;;;5095966;28;20428;-86
2022/03/27 00:14:01;;;;;;;0.63;0.40;;;7.10;63.60;;;;;;5096252;28;20456;-85
2022/03/27 00:16:28;;;;;;;0.60;0.40;;;7.10;64.50;;;;;;5095854;28;20432;-85
2022/03/27 00:18:55;;;;;;;1.87;1.77;;;7.10;64.70;;;;;;5095757;28;20453;-85
2022/03/27 00:21:22;;;;;;;0.77;0.77;;;7.10;64.30;;;;;;5096083;28;20462;-85
2022/03/27 00:23:50;;;;;;;1.53;1.10;;;7.00;64.60;;;;;;5095985;28;20448;-86
2022/03/27 00:26:18;;;;;;;0.83;0.83;;;7.00;65.00;;;;;;5095907;28;20463;-86
2022/03/27 00:28:45;;;;;;;0.90;0.90;;;7.00;65.20;;;;;;5097090;28;20543;-85
2022/03/27 00:31:13;;;;;;;0.40;0.40;;;6.90;65.30;;;;;;5095644;28;20808;-85
2022/03/27 00:33:42;;;;;;;0.97;0.97;;;6.90;65.80;;;;;;5094706;28;20943;-85
2022/03/27 00:36:10;;;;;;;2.87;1.27;;;6.90;66.10;;;;;;5095761;28;20448;-84
2022/03/27 00:38:37;;;;;;;0.93;0.60;;;6.80;66.30;;;;;;5095351;28;20481;-85
2022/03/27 00:41:04;;;;;;;0.50;0.40;;;6.80;67.10;;;;;;5095690;28;20455;-85
2022/03/27 00:43:33;;;;;;;0.70;0.70;;;6.80;67.20;;;;;;5095508;28;20490;-85
2022/03/27 00:46:00;;;;;;;2.50;0.70;;;6.80;67.00;;;;;;5095595;28;20448;-85
2022/03/27 00:48:27;;;;;;;0.97;0.50;;;6.80;66.90;;;;;;5095459;28;20448;-86
2022/03/27 00:50:55;;;;;;;1.20;1.17;;;6.70;67.40;;;;;;5095468;28;20456;-86
2022/03/27 00:53:22;;;;;;;0.50;0.50;;;6.70;68.10;;;;;;5095208;28;20447;-86
2022/03/27 00:55:49;;;;;;;0.43;0.43;;;6.70;68.10;;;;;;5095360;28;20447;-86
2022/03/27 00:58:17;;;;;;;0.63;0.63;;;6.70;67.90;;;;;;5094952;28;20473;-86
2022/03/27 01:00:50;;;;;;;1.60;1.13;;;6.60;68.00;;;;;;5094914;28;20468;-86
2022/03/27 01:03:20;;;;;;;0.70;0.70;;;6.70;68.90;;;;;;5095040;28;20441;-86
2022/03/27 01:05:48;;;;;;;3.47;1.27;;;6.60;69.20;;;;;;5094929;28;20973;-86
2022/03/27 01:08:15;;;;;;;0.60;0.60;;;6.50;68.60;;;;;;5094811;28;20931;-86
2022/03/27 01:10:42;;;;;;;6.70;0.63;;;6.50;68.90;;;;;;5095125;28;20448;-86
2022/03/27 01:13:12;;;;;;;2.07;1.30;;;6.40;69.70;;;;;;5095089;28;20452;-86
2022/03/27 01:15:41;;;;;;;0.63;0.37;;;6.40;70.00;;;;;;5095056;28;20440;-86
2022/03/27 01:18:09;;;;;;;0.50;0.50;;;6.40;70.00;;;;;;5094900;28;20467;-86
2022/03/27 01:20:41;;;;;;;0.30;0.30;;;6.40;70.40;;;;;;5094602;28;20953;-87
2022/03/27 01:23:10;;;;;;;1.00;1.00;;;6.30;70.30;;;;;;5094640;28;20409;-86
2022/03/27 01:25:37;;;;;;;1.13;0.80;;;6.30;71.10;;;;;;5094942;28;20432;-86
2022/03/27 01:28:04;;;;;;;19.53;1.33;;;6.30;71.40;;;;;;5094816;28;20451;-85
2022/03/27 01:30:30;;;;;;;0.90;0.50;;;6.30;71.00;;;;;;5094679;28;20475;-86
2022/03/27 01:32:58;;;;;;;0.30;0.30;;;6.30;70.80;;;;;;5094475;28;20409;-87
2022/03/27 01:35:25;;;;;;;0.67;0.67;;;6.20;70.50;;;;;;5094666;28;20470;-87
2022/03/27 01:37:53;;;;;;;1.37;0.97;;;6.20;70.10;;;;;;5094233;28;20478;-86
2022/03/27 01:40:20;;;;;;;0.30;0.20;;;6.10;71.20;;;;;;5094547;28;20993;-87
2022/03/27 01:42:46;;;;;;;0.40;0.40;;;6.10;71.60;;;;;;5094028;28;20432;-87
2022/03/27 01:45:14;;;;;;;0.70;0.70;;;6.00;71.80;;;;;;5096631;28;20447;-86
2022/03/27 01:47:40;;;;;;;1.00;0.90;;;6.00;73.10;;;;;;5094335;28;20440;-86
2022/03/27 01:50:08;;;;;;;0.60;0.60;;;6.00;73.70;;;;;;5094268;28;20474;-85
2022/03/27 01:52:35;;;;;;;1.63;1.33;;;6.00;73.40;;;;;;5094316;28;20459;-86
2022/03/27 01:55:06;;;;;;;1.07;0.50;;;6.00;73.90;;;;;;5094230;28;20523;-86
2022/03/27 01:57:33;;;;;;;4.37;0.67;;;6.00;74.20;;;;;;5094403;28;20467;-86
2022/03/27 02:00:00;;;;;;;0.60;0.60;;;6.00;74.00;;;;;;5093796;28;20488;-86
2022/03/27 02:02:27;;;;;;;0.70;0.70;;;6.00;74.10;;;;;;5094771;28;20465;-86
2022/03/27 02:04:54;;;;;;;0.40;0.40;;;5.90;74.10;;;;;;5093852;28;20432;-87
2022/03/27 02:07:22;;;;;;;0.50;0.50;;;5.90;74.70;;;;;;5093746;28;20440;-85
2022/03/27 02:09:49;;;;;;;0.50;0.40;;;5.90;76.10;;;;;;5094137;28;20483;-86
2022/03/27 02:12:17;;;;;;;1.93;0.50;;;5.90;76.30;;;;;;5093998;28;20935;-87
2022/03/27 02:14:44;;;;;;;0.50;0.50;;;5.90;76.30;;;;;;5093926;28;20451;-87
2022/03/27 02:17:11;;;;;;;3.43;2.60;;;5.90;76.00;;;;;;5093496;28;21012;-85
2022/03/27 02:19:38;;;;;;;1.50;1.40;;;5.90;76.90;;;;;;5093775;28;20472;-87
2022/03/27 02:22:05;;;;;;;0.30;0.30;;;5.80;77.70;;;;;;5093831;28;20447;-84
2022/03/27 02:24:32;;;;;;;1.90;0.60;;;5.80;78.00;;;;;;5093548;28;20436;-87
2022/03/27 02:26:58;;;;;;;1.03;1.03;;;5.80;78.10;;;;;;5093738;28;20444;-87
2022/03/27 02:29:26;;;;;;;1.43;0.37;;;5.70;78.30;;;;;;5093668;28;20463;-88
2022/03/27 02:31:54;;;;;;;0.50;0.50;;;5.70;79.10;;;;;;5093399;28;20428;-87
2022/03/27 02:34:21;;;;;;;0.57;0.57;;;5.60;78.80;;;;;;5094073;28;20509;-88
2022/03/27 02:36:47;;;;;;;0.60;0.60;;;5.60;78.80;;;;;;5093315;28;20439;-87
2022/03/27 02:39:14;;;;;;;0.80;0.80;;;5.60;79.90;;;;;;5093174;28;20480;-87
2022/03/27 02:41:41;;;;;;;1.60;0.87;;;5.60;80.00;;;;;;5093330;28;20434;-87
2022/03/27 02:44:09;;;;;;;0.30;0.20;;;5.60;81.40;;;;;;5093235;28;20440;-87
2022/03/27 02:46:37;;;;;;;0.63;0.63;;;5.60;82.30;;;;;;5093420;28;20443;-87
2022/03/27 02:49:04;;;;;;;2.93;0.63;;;5.60;82.20;;;;;;5093427;28;20452;-86
2022/03/27 02:51:31;;;;;;;0.37;0.37;;;5.50;82.30;;;;;;5093443;28;20553;-87
2022/03/27 02:53:57;;;;;;;0.90;0.73;;;5.50;83.00;;;;;;5093479;28;20454;-86
2022/03/27 02:56:24;;;;;;;0.30;0.30;;;5.50;83.60;;;;;;5095990;28;20432;-87
2022/03/27 02:58:51;;;;;;;0.63;0.63;;;5.50;84.30;;;;;;5097564;28;20494;-87
2022/03/27 03:01:18;;;;;;;0.60;0.43;;;5.50;85.10;;;;;;5097212;28;20498;-86
2022/03/27 03:03:46;;;;;;;0.40;0.30;;;5.60;85.50;;;;;;5098701;28;20432;-87
2022/03/27 03:06:13;;;;;;;2.30;1.03;;;5.60;85.20;;;;;;5097274;28;20448;-86
2022/03/27 03:08:40;;;;;;;0.60;0.60;;;5.50;85.10;;;;;;5097359;28;20472;-86
2022/03/27 03:11:08;;;;;;;0.63;0.63;;;5.60;86.40;;;;;;5097942;28;20448;-86
2022/03/27 03:13:35;;;;;;;1.27;0.70;;;5.60;86.70;;;;;;5097090;28;21025;-87
2022/03/27 03:16:03;;;;;;;0.30;0.30;;;5.60;86.90;;;;;;5097286;28;20455;-86
2022/03/27 03:18:34;;;;;;;0.73;0.73;;;5.60;87.50;;;;;;5097099;28;20488;-86
2022/03/27 03:21:02;;;;;;;1.70;0.70;;;5.50;88.00;;;;;;5097628;28;20459;-87
2022/03/27 03:23:29;;;;;;;0.57;0.57;;;5.50;88.00;;;;;;5097162;28;20448;-87
2022/03/27 03:25:56;;;;;;;2.20;2.10;;;5.40;88.00;;;;;;5097114;28;20463;-87
2022/03/27 03:28:23;;;;;;;2.20;0.80;;;5.40;87.80;;;;;;5096743;28;20436;-87
2022/03/27 03:30:49;;;;;;;1.00;1.00;;;5.30;87.90;;;;;;5097056;28;20448;-86
2022/03/27 03:33:16;;;;;;;0.90;0.60;;;5.30;88.70;;;;;;5096751;28;20435;-87
2022/03/27 03:35:43;;;;;;;3.77;0.80;;;5.20;89.30;;;;;;5096987;28;20439;-87
2022/03/27 03:38:11;;;;;;;0.37;0.30;;;5.20;89.60;;;;;;5096452;28;20479;-85
2022/03/27 03:40:40;;;;;;;0.30;0.30;;;5.20;89.70;;;;;;5096588;28;20455;-87
2022/03/27 03:43:07;;;;;;;0.33;0.30;;;5.20;89.90;;;;;;5096833;28;20442;-88
2022/03/27 03:45:33;;;;;;;0.30;0.30;;;5.20;90.50;;;;;;5096778;28;20814;-87
2022/03/27 03:48:01;;;;;;;0.30;0.27;;;5.10;90.80;;;;;;5096724;28;20450;-86
2022/03/27 03:50:29;;;;;;;0.50;0.50;;;5.10;91.30;;;;;;5096712;28;20468;-88
2022/03/27 03:52:56;;;;;;;0.30;0.30;;;5.10;91.60;;;;;;5096851;28;20436;-87
2022/03/27 03:55:24;;;;;;;0.40;0.40;;;5.00;91.30;;;;;;5096331;28;20432;-87
2022/03/27 03:57:51;;;;;;;0.60;0.60;;;5.00;91.70;;;;;;5096439;28;20443;-88
2022/03/27 04:00:18;;;;;;;0.40;0.30;;;5.00;91.80;;;;;;5096030;28;20826;-88
2022/03/27 04:02:45;;;;;;;0.80;0.80;;;4.90;92.20;;;;;;5096186;28;20439;-85
2022/03/27 04:05:11;;;;;;;0.50;0.50;;;5.00;92.60;;;;;;5096171;28;20950;-87
2022/03/27 04:07:38;;;;;;;0.70;0.70;;;5.00;92.80;;;;;;5096030;28;20447;-86
2022/03/27 04:10:06;;;;;;;1.13;1.13;;;5.00;93.20;;;;;;5095894;28;20468;-87
2022/03/27 04:12:34;;;;;;;0.30;0.30;;;5.00;92.40;;;;;;5096291;28;20458;-88
2022/03/27 04:15:01;;;;;;;0.50;0.50;;;5.00;92.20;;;;;;5096063;28;20448;-87
2022/03/27 04:17:28;;;;;;;0.30;0.20;;;5.00;92.70;;;;;;5095873;28;20923;-88
2022/03/27 04:19:54;;;;;;;0.40;0.40;;;4.90;93.40;;;;;;5095989;28;20495;-85
2022/03/27 04:22:21;;;;;;;4.30;1.20;;;4.90;93.40;;;;;;5095799;28;20443;-85
2022/03/27 04:24:48;;;;;;;0.30;0.30;;;4.90;93.20;;;;;;5096017;28;20462;-86
2022/03/27 04:27:15;;;;;;;0.30;0.30;;;4.80;93.40;;;;;;5095662;28;20962;-88
2022/03/27 04:29:43;;;;;;;0.40;0.40;;;4.80;93.80;;;;;;5095546;28;20994;-85
2022/03/27 04:32:10;;;;;;;12.03;1.13;;;4.80;94.00;;;;;;5095575;28;20927;-87
2022/03/27 04:34:37;;;;;;;0.50;0.37;;;4.80;94.00;;;;;;5096035;28;20437;-87
2022/03/27 04:37:05;;;;;;;0.30;0.30;;;4.80;94.40;;;;;;5095749;28;20459;-86
2022/03/27 04:39:32;;;;;;;2.83;0.60;;;4.80;94.50;;;;;;5095639;28;20571;-86
2022/03/27 04:41:59;;;;;;;2.00;0.60;;;4.80;94.50;;;;;;5096394;28;20448;-88
2022/03/27 04:44:26;;;;;;;0.80;0.80;;;4.70;94.00;;;;;;5095766;28;20452;-87
2022/03/27 04:46:54;;;;;;;0.40;0.40;;;4.70;93.70;;;;;;5095565;28;20455;-85
2022/03/27 04:49:21;;;;;;;2.10;0.80;;;4.70;94.40;;;;;;5095460;28;20452;-86
2022/03/27 04:51:47;;;;;;;2.70;0.73;;;4.60;94.60;;;;;;5095519;28;20459;-86
2022/03/27 04:54:14;;;;;;;3.30;0.60;;;4.60;95.00;;;;;;5095231;28;20502;-88
2022/03/27 04:56:41;;;;;;;0.40;0.40;;;4.50;95.10;;;;;;5095163;28;20443;-87
2022/03/27 04:59:08;;;;;;;0.30;0.30;;;4.40;95.40;;;;;;5095059;28;20887;-86
2022/03/27 05:01:34;;;;;;;0.30;0.20;;;4.40;95.60;;;;;;5094939;28;20974;-88
2022/03/27 05:04:04;;;;;;;0.73;0.73;;;4.40;96.20;;;;;;5094935;28;20935;-87
2022/03/27 05:06:30;;;;;;;0.83;0.83;;;4.30;96.30;;;;;;5095415;28;20456;-86
2022/03/27 05:08:58;;;;;;;11.23;0.73;;;4.30;97.00;;;;;;5095092;28;20474;-86
2022/03/27 05:11:25;;;;;;;0.30;0.30;;;4.30;97.20;;;;;;5095134;28;20517;-85
2022/03/27 05:13:52;;;;;;;0.50;0.50;;;4.30;97.20;;;;;;5094846;28;20435;-87
2022/03/27 05:16:19;;;;;;;1.33;1.33;;;4.20;97.00;;;;;;5094994;28;20459;-86
2022/03/27 05:18:46;;;;;;;0.50;0.50;;;4.30;97.30;;;;;;5094039;28;20856;-86
2022/03/27 05:21:14;;;;;;;0.30;0.30;;;4.30;97.80;;;;;;5094656;28;20800;-88
2022/03/27 05:23:41;;;;;;;6.03;2.50;;;4.20;98.10;;;;;;5094869;28;20435;-86
2022/03/27 05:26:08;;;;;;;0.37;0.37;;;4.20;98.40;;;;;;5094546;28;20939;-87
2022/03/27 05:28:35;;;;;;;1.03;0.73;;;4.20;98.50;;;;;;5094675;28;20468;-88
2022/03/27 05:31:08;;;;;;;0.30;0.30;;;4.20;99.00;;;;;;5094743;28;20456;-86
2022/03/27 05:33:34;;;;;;;0.80;0.80;;;4.30;99.10;;;;;;5094763;28;20840;-86
2022/03/27 05:36:01;;;;;;;0.80;0.40;;;4.40;99.70;;;;;;5094600;28;20448;-87
2022/03/27 05:38:29;;;;;;;0.77;0.50;;;4.40;99.90;;;;;;5094449;28;20490;-88
2022/03/27 05:40:56;;;;;;;0.50;0.50;;;4.50;99.90;;;;;;5095860;28;20463;-87
2022/03/27 05:43:23;;;;;;;0.50;0.50;;;4.50;99.90;;;;;;5094160;28;20786;-85
2022/03/27 05:45:50;;;;;;;0.67;0.50;;;4.60;99.90;;;;;;5094354;28;20495;-85
2022/03/27 05:48:17;;;;;;;0.30;0.20;;;4.60;99.90;;;;;;5094101;28;20437;-86
2022/03/27 05:50:44;;;;;;;0.30;0.20;;;4.60;99.90;;;;;;5094336;28;20455;-87
2022/03/27 05:53:10;;;;;;;1.33;1.33;;;4.70;99.90;;;;;;5094323;28;20433;-87
2022/03/27 05:55:39;;;;;;;0.90;0.90;;;4.80;99.90;;;;;;5094313;28;20439;-87
2022/03/27 05:58:07;;;;;;;0.40;0.40;;;4.80;99.90;;;;;;5093978;28;20443;-88
2022/03/27 06:00:34;;;;;;;0.30;0.20;;;4.90;99.90;;;;;;5093536;28;20483;-87
2022/03/27 06:03:01;;;;;;;0.30;0.30;;;4.90;98.90;;;;;;5094131;28;20452;-85
2022/03/27 06:05:28;;;;;;;0.60;0.60;;;4.90;99.10;;;;;;5093842;28;20809;-87
2022/03/27 06:07:56;;;;;;;0.70;0.67;;;5.00;99.20;;;;;;5094083;28;20455;-86
2022/03/27 06:10:25;;;;;;;0.60;0.47;;;5.00;99.10;;;;;;5093739;28;20471;-87
2022/03/27 06:12:54;;;;;;;0.53;0.53;;;5.00;99.20;;;;;;5094531;28;20474;-86
2022/03/27 06:15:22;;;;;;;0.83;0.83;;;5.10;98.80;;;;;;5094091;28;20467;-87
2022/03/27 06:17:51;;;;;;;0.40;0.40;;;5.10;99.10;;;;;;5093999;28;20448;-86
2022/03/27 06:20:19;;;;;;;0.83;0.83;;;5.20;99.10;;;;;;5094001;28;20875;-88
2022/03/27 06:22:47;;;;;;;0.57;0.57;;;5.20;98.90;;;;;;5093838;28;20436;-87
2022/03/27 06:25:16;;;;;;;1.23;0.57;;;5.30;99.30;;;;;;5093782;28;20454;-87
2022/03/27 06:27:44;;;;;;;1.03;0.50;;;5.60;98.40;;;;;;5093477;28;20432;-87
2022/03/27 06:30:15;;;;;;;0.40;0.33;;;6.20;96.70;;;;;;5092779;28;20479;-84
2022/03/27 06:32:42;;;;;;;0.40;0.40;;;7.10;94.10;;;;;;5093709;28;20444;-84
2022/03/27 06:35:11;;;;;;;0.40;0.40;;;8.10;91.50;;;;;;5093701;28;20456;-84
2022/03/27 06:37:38;;;;;;;6.10;1.07;;;8.90;88.70;;;;;;5093680;28;20444;-82
2022/03/27 06:40:06;;;;;;;0.40;0.40;;;9.20;85.20;;;;;;5093509;28;20487;-84
2022/03/27 06:42:33;;;;;;;1.73;0.80;;;9.20;82.60;;;;;;5093484;28;20440;-84
2022/03/27 06:45:00;;;;;;;1.73;1.43;;;8.90;82.20;;;;;;5093653;28;20447;-84
2022/03/27 06:47:29;;;;;;;1.00;0.87;;;8.50;82.20;;;;;;5093571;28;20454;-85
2022/03/27 06:49:57;;;;;;;1.07;0.63;;;8.20;83.10;;;;;;5093277;28;21002;-84
2022/03/27 06:52:25;;;;;;;1.03;1.00;;;7.90;84.00;;;;;;5093269;28;20980;-85
2022/03/27 06:54:53;;;;;;;2.40;2.00;;;7.60;84.40;;;;;;5093484;28;20455;-85
2022/03/27 06:57:20;;;;;;;0.57;0.53;;;7.50;85.40;;;;;;5093281;28;20943;-86
2022/03/27 07:05:22;;;;;;;1.43;0.93;;;7.20;89.10;;;;;;5093545;28;20499;-85
2022/03/27 07:07:49;;;;;;;0.40;0.40;;;7.30;89.40;;;;;;5093342;28;20545;-86
2022/03/27 07:10:17;;;;;;;1.00;1.00;;;7.30;90.00;;;;;;5092866;28;20511;-85
2022/03/27 07:12:45;;;;;;;0.60;0.60;;;7.40;90.20;;;;;;5093331;28;20444;-85
2022/03/27 07:15:12;;;;;;;0.63;0.63;;;7.50;90.20;;;;;;5093241;28;20441;-86
2022/03/27 07:17:46;;;;;;;4.20;1.70;;;7.60;89.60;;;;;;5093266;28;20443;-85
2022/03/27 07:20:17;;;;;;;0.30;0.30;;;7.70;88.50;;;;;;5092875;28;21006;-85
2022/03/27 07:22:44;;;;;;;2.47;2.27;;;7.90;88.10;;;;;;5093019;28;20412;-86
2022/03/27 07:25:10;;;;;;;0.80;0.40;;;8.00;88.20;;;;;;5093037;28;20474;-85
2022/03/27 07:27:38;;;;;;;8.13;1.40;;;8.10;87.50;;;;;;5092933;28;20440;-86
2022/03/27 07:30:06;;;;;;;0.63;0.63;;;8.20;86.80;;;;;;5093102;28;20519;-85
2022/03/27 07:32:33;;;;;;;1.00;0.80;;;8.30;86.90;;;;;;5093082;28;20483;-85
2022/03/27 07:35:01;;;;;;;1.00;0.90;;;8.50;85.60;;;;;;5093063;28;20455;-85
2022/03/27 07:37:32;;;;;;;1.63;1.10;;;8.60;85.80;;;;;;5093102;28;20448;-85
2022/03/27 07:40:03;;;;;;;1.10;0.93;;;8.70;86.10;;;;;;5092625;28;20488;-85
2022/03/27 07:42:30;;;;;;;13.13;1.70;;;8.80;86.10;;;;;;5095937;28;20431;-85
2022/03/27 07:44:57;;;;;;;1.43;0.80;;;8.90;86.50;;;;;;5096717;28;20782;-85
2022/03/27 07:47:24;;;;;;;0.87;0.83;;;9.00;84.70;;;;;;5096827;28;20447;-85
2022/03/27 07:49:50;;;;;;;0.60;0.60;;;9.10;84.70;;;;;;5096768;28;20534;-85
2022/03/27 07:52:19;;;;;;;1.70;0.60;;;9.30;83.30;;;;;;5096400;28;20447;-85
2022/03/27 07:54:46;;;;;;;0.60;0.60;;;9.50;82.80;;;;;;5096639;28;20459;-85
2022/03/27 07:57:13;;;;;;;1.60;0.60;;;9.60;82.80;;;;;;5096353;28;20432;-85
2022/03/27 07:59:39;;;;;;;4.00;1.10;;;9.70;82.40;;;;;;5096352;28;20509;-83
2022/03/27 08:02:07;;;;;;;3.13;0.57;;;9.90;83.40;;;;;;5096393;28;20447;-83
2022/03/27 08:04:35;;;;;;;1.47;0.43;;;10.10;81.60;;;;;;5096490;28;20456;-83
2022/03/27 08:07:01;;;;;;;2.00;1.03;;;10.20;80.00;;;;;;5096564;28;20435;-83
2022/03/27 08:09:29;;;;;;;0.83;0.83;;;10.40;81.20;;;;;;5096164;28;20996;-83
2022/03/27 08:11:56;;;;;;;1.13;1.13;;;10.60;80.40;;;;;;5096644;28;20440;-83
2022/03/27 08:14:24;;;;;;;0.63;0.63;;;10.80;79.80;;;;;;5096876;28;20444;-82
2022/03/27 08:16:51;;;;;;;2.73;0.50;;;11.10;79.30;;;;;;5096496;28;20444;-82
2022/03/27 08:19:18;;;;;;;0.60;0.37;;;11.40;79.40;;;;;;5095989;28;20480;-82
2022/03/27 08:21:45;;;;;;;0.97;0.87;;;11.80;76.70;;;;;;5096284;28;20444;-82
2022/03/27 08:24:12;;;;;;;4.67;0.67;;;12.00;77.00;;;;;;5095887;28;20970;-81
2022/03/27 08:26:59;;;;;;;2.30;1.67;;;12.20;76.00;;;;;;5096084;28;20953;-82
2022/03/27 08:29:29;;;;;;;3.90;1.37;;;12.30;76.00;;;;;;5096139;28;20510;-82
2022/03/27 08:31:56;;;;;;;0.50;0.50;;;12.50;73.90;;;;;;5096018;28;20521;-82
2022/03/27 08:34:24;;;;;;;1.73;1.13;;;12.60;74.00;;;;;;5096072;28;20829;-82
2022/03/27 08:36:51;;;;;;;2.73;0.90;;;12.80;73.50;;;;;;5096228;28;20489;-82
2022/03/27 08:39:18;;;;;;;1.23;1.07;;;13.00;73.30;;;;;;5095398;28;20471;-81
2022/03/27 08:41:51;;;;;;;1.20;1.00;;;13.20;72.40;;;;;;5095484;28;20896;-81
2022/03/27 08:44:19;;;;;;;2.20;1.13;;;13.40;72.40;;;;;;5095806;28;20443;-81
2022/03/27 08:46:47;;;;;;;2.83;0.90;;;13.60;71.70;;;;;;5095399;28;20433;-81
2022/03/27 08:49:29;;;;;;;2.47;1.27;;;13.70;70.10;;;;;;5095563;28;20479;-81
2022/03/27 08:51:58;;;;;;;2.47;1.40;;;14.00;69.50;;;;;;5095328;28;20876;-81
2022/03/27 08:54:27;;;;;;;5.10;1.10;;;14.30;67.70;;;;;;5094925;28;20805;-83
2022/03/27 08:57:05;;;;;;;3.60;1.00;;;14.60;65.40;;;;;;5095550;28;20463;-82
2022/03/27 08:59:34;;;;;;;5.30;1.37;;;14.90;64.40;;;;;;5095244;28;21047;-81
2022/03/27 09:02:01;;;;;;;1.80;1.00;;;15.30;64.20;;;;;;5095358;28;20421;-80
2022/03/27 09:04:29;;;;;;;1.90;1.00;;;15.80;61.80;;;;;;5094999;28;20436;-81
2022/03/27 09:06:56;;;;;;;3.27;1.13;;;16.70;59.90;;;;;;5095269;28;20440;-80
2022/03/27 09:09:22;;;;;;;1.93;1.33;;;18.00;56.90;;;;;;5094887;28;20459;-79
2022/03/27 09:11:50;;;;;;;2.90;2.07;;;19.60;55.20;;;;;;5095179;28;20446;-80
2022/03/27 09:14:19;;;;;;;5.20;0.87;;;21.60;51.10;;;;;;5095056;28;20446;-80
2022/03/27 09:17:01;;;;;;;1.02;0.90;;;23.30;48.00;;;;;;5095046;28;20450;-80
2022/03/27 09:19:33;;;;;;;3.10;1.25;;;24.60;42.60;;;;;;5094919;28;20267;-81
2022/03/27 09:22:00;;;;;;;2.58;1.42;;;25.00;41.30;;;;;;5094994;28;20538;-80
2022/03/27 09:24:34;;;;;;;5.00;1.33;;;25.60;39.50;;;;;;5094999;28;20202;-80
2022/03/27 09:27:01;;;;;;;2.55;1.92;;;25.60;38.60;;;;;;5094936;28;20228;-81
2022/03/27 09:29:29;;;;;;;2.30;1.23;;;25.70;38.90;;;;;;5094759;28;20221;-80
2022/03/27 09:31:58;;;;;;;5.30;1.65;;;25.80;38.70;;;;;;5094729;28;20205;-81
2022/03/27 09:34:25;;;;;;;2.20;1.67;;;26.00;37.10;;;;;;5094726;28;20211;-81
2022/03/27 09:36:52;;;;;;;3.38;1.40;;;25.80;36.80;;;;;;5094642;28;20303;-80
2022/03/27 09:39:20;;;;;;;2.63;1.20;;;26.10;36.20;;;;;;5094537;28;20312;-80
2022/03/27 09:41:49;;;;;;;12.50;1.75;;;26.50;35.40;;;;;;5094555;28;20228;-80
2022/03/27 09:44:17;;;;;;;2.83;1.50;;;26.50;34.60;;;;;;5094494;28;20585;-80
2022/03/27 09:47:05;;;;;;;2.30;1.42;;;26.40;34.50;;;;;;5094469;28;20186;-80
2022/03/27 09:49:46;;;;;;;2.85;1.77;;;26.70;34.50;;;;;;5094016;28;20714;-80
2022/03/27 09:52:15;;;;;;;5.60;2.25;;;27.90;33.60;;;;;;5094065;28;20676;-80
2022/03/27 09:54:48;;;;;;;3.67;1.58;;;28.40;32.40;;;;;;5094441;28;20183;-81
2022/03/27 09:57:23;;;;;;;5.90;2.20;;;27.90;31.50;;;;;;5094817;28;20211;-82
2022/03/27 09:59:51;;;;;;;2.20;1.20;;;27.90;31.60;;;;;;5094482;28;20234;-82
2022/03/27 10:02:21;;;;;;;1.45;1.35;;;27.50;32.40;;;;;;5094536;28;20193;-82
2022/03/27 10:04:56;;;;;;;4.47;1.75;;;26.80;32.10;;;;;;5094380;28;20186;-82
2022/03/27 10:07:24;;;;;;;5.65;1.75;;;26.80;32.80;;;;;;5094541;28;20201;-82
2022/03/27 10:09:52;;;;;;;2.75;1.50;;;26.50;32.10;;;;;;5094496;28;20704;-82
2022/03/27 10:12:19;;;;;;;5.80;1.33;;;26.50;33.30;;;;;;5094489;28;20186;-83
2022/03/27 10:14:47;;;;;;;4.05;1.25;;;26.40;33.40;;;;;;5094430;28;20185;-82
2022/03/27 10:17:15;;;;;;;1.95;1.08;;;26.30;32.10;;;;;;5094070;28;20781;-82
2022/03/27 10:19:49;;;;;;;3.85;2.05;;;26.00;32.10;;;;;;5094264;28;20218;-82
2022/03/27 10:22:20;;;;;;;3.17;1.65;;;26.10;32.20;;;;;;5094782;28;20246;-81
2022/03/27 10:24:51;;;;;;;7.65;2.08;;;26.30;33.10;;;;;;5094448;28;20617;-80
2022/03/27 10:27:19;;;;;;;2.65;1.80;;;27.10;31.30;;;;;;5094326;28;20231;-81
2022/03/27 10:29:48;;;;;;;3.58;1.70;;;27.10;31.70;;;;;;5093723;28;20308;-80
2022/03/27 10:32:15;;;;;;;3.17;1.63;;;27.50;30.40;;;;;;5093892;28;20246;-80
2022/03/27 10:34:51;;;;;;;2.65;1.65;;;27.00;31.30;;;;;;5093952;28;20209;-82
2022/03/27 10:37:35;;;;;;;5.15;1.73;;;26.30;32.10;;;;;;5094139;28;20189;-81
2022/03/27 10:40:09;;;;;;;2.35;1.20;;;26.30;33.30;;;;;;5093975;28;20237;-81
2022/03/27 10:42:47;;;;;;;2.83;1.52;;;26.90;31.40;;;;;;5094009;28;20189;-82
2022/03/27 10:45:18;;;;;;;4.05;0.93;;;27.40;31.30;;;;;;5094845;28;20190;-82
2022/03/27 10:48:05;;;;;;;3.80;1.80;;;28.30;30.00;;;;;;5097463;28;20278;-82
2022/03/27 10:50:45;;;;;;;6.85;1.98;;;29.40;30.00;;;;;;5093440;28;20223;-82
2022/03/27 10:53:12;;;;;;;1.40;1.27;;;30.30;28.70;;;;;;5096549;28;20187;-82
2022/03/27 10:55:43;;;;;;;3.50;2.08;;;30.80;27.30;;;;;;5093591;28;20211;-83
2022/03/27 10:58:34;;;;;;;3.58;2.17;;;30.90;26.70;;;;;;5093895;28;20196;-81
2022/03/27 11:01:03;;;;;;;2.40;1.33;;;31.20;26.40;;;;;;5093149;28;20777;-81
2022/03/27 11:03:51;;;;;;;3.78;2.13;;;30.80;27.50;;;;;;5093657;28;20187;-81
2022/03/27 11:06:28;;;;;;;4.63;1.85;;;30.70;27.60;;;;;;5093501;28;20281;-81
2022/03/27 11:08:58;;;;;;;3.13;1.55;;;30.40;27.10;;;;;;5093428;28;20231;-82
2022/03/27 11:11:56;;;;;;;4.30;1.75;;;29.40;27.60;;;;;;5093778;28;20200;-81
2022/03/27 11:14:45;;;;;;;4.47;1.88;;;27.60;28.90;;;;;;5093202;28;20208;-82
2022/03/27 11:17:13;;;;;;;7.38;1.88;;;25.90;29.50;;;;;;5095517;28;20207;-81
2022/03/27 11:19:45;;;;;;;2.92;1.30;;;24.60;30.60;;;;;;5097484;28;20290;-82
2022/03/27 11:22:49;;;;;;;8.43;1.60;;;24.10;31.40;;;;;;5097213;28;20216;-81
2022/03/27 11:25:28;;;;;;;3.70;1.42;;;23.40;33.00;;;;;;5096189;28;20198;-81
2022/03/27 11:27:56;;;;;;;4.43;1.47;;;22.70;33.20;;;;;;5097457;28;20217;-83
2022/03/27 11:30:23;;;;;;;5.30;1.77;;;22.00;35.40;;;;;;5096934;28;20657;-82
2022/03/27 11:33:15;;;;;;;5.33;2.00;;;21.80;35.30;;;;;;5098111;28;20521;-82
2022/03/27 11:35:43;;;;;;;2.40;1.57;;;21.50;35.40;;;;;;5097840;28;20784;-81
2022/03/27 11:38:24;;;;;;;3.17;1.33;;;21.60;35.10;;;;;;5097807;28;20458;-82
2022/03/27 11:40:51;;;;;;;2.60;1.07;;;21.60;34.10;;;;;;5097600;28;20463;-81
2022/03/27 11:43:31;;;;;;;2.80;0.97;;;21.40;33.30;;;;;;5099702;28;20436;-81
2022/03/27 11:46:00;;;;;;;1.43;0.90;;;21.00;31.80;;;;;;5098993;28;20427;-82
2022/03/27 11:48:27;;;;;;;3.13;2.00;;;20.70;34.30;;;;;;5098562;28;20439;-82
2022/03/27 11:50:54;;;;;;;2.27;0.90;;;20.80;34.80;;;;;;5098732;28;20439;-82
2022/03/27 11:53:33;;;;;;;8.60;2.00;;;20.70;35.50;;;;;;5098859;28;20439;-82
2022/03/27 11:56:11;;;;;;;2.93;1.20;;;20.60;35.40;;;;;;5098800;28;20435;-82
2022/03/27 11:58:39;;;;;;;3.23;1.33;;;20.50;35.80;;;;;;5098137;28;20503;-83
2022/03/27 12:01:08;;;;;;;1.67;1.37;;;20.50;35.40;;;;;;5096632;28;20846;-83
2022/03/27 12:03:36;;;;;;;1.33;0.90;;;20.30;35.60;;;;;;5096737;28;20930;-81
2022/03/27 12:06:07;;;;;;;4.50;1.90;;;20.30;32.90;;;;;;5096191;28;20436;-81
2022/03/27 12:08:37;;;;;;;5.23;1.27;;;20.20;35.80;;;;;;5096806;28;20459;-81
2022/03/27 12:11:06;;;;;;;4.40;1.30;;;20.00;36.30;;;;;;5096493;28;20435;-80
2022/03/27 12:13:42;;;;;;;1.87;0.97;;;19.90;35.50;;;;;;5098174;28;20451;-81
2022/03/27 12:16:16;;;;;;;1.63;1.20;;;19.80;34.80;;;;;;5098614;28;20436;-81
2022/03/27 12:18:44;;;;;;;4.47;1.73;;;19.60;34.80;;;;;;5098343;28;20468;-82
2022/03/27 12:21:13;;;;;;;3.90;1.43;;;19.40;34.10;;;;;;5097513;28;20498;-82
2022/03/27 12:23:42;;;;;;;2.00;0.90;;;19.20;34.50;;;;;;5097584;28;20428;-82
2022/03/27 12:31:58;;;;;;;1.23;0.90;;;19.10;34.60;;;;;;5097491;28;20445;-81
2022/03/27 12:34:25;;;;;;;1.00;0.90;;;19.10;34.50;;;;;;5097723;28;20479;-80
2022/03/27 12:37:11;;;;;;;2.30;1.10;;;19.10;35.30;;;;;;5097755;28;20452;-81
2022/03/27 12:39:41;;;;;;;0.80;0.80;;;18.90;34.80;;;;;;5097718;28;20460;-81
2022/03/27 12:42:08;;;;;;;2.50;1.10;;;18.80;33.50;;;;;;5096270;28;20483;-81
2022/03/27 12:44:47;;;;;;;0.50;0.50;;;18.70;34.80;;;;;;5095736;28;20455;-81
2022/03/27 12:47:14;;;;;;;2.20;0.83;;;18.60;33.40;;;;;;5095729;28;20452;-80
2022/03/27 12:49:48;;;;;;;1.13;0.53;;;18.50;33.40;;;;;;5096023;28;20971;-81
2022/03/27 12:52:15;;;;;;;0.53;0.53;;;18.60;33.50;;;;;;5096936;28;20440;-81
2022/03/27 12:55:01;;;;;;;4.97;0.80;;;18.60;33.10;;;;;;5096757;28;20912;-81
2022/03/27 12:57:50;;;;;;;1.30;0.83;;;18.50;33.80;;;;;;5097210;28;20530;-81
2022/03/27 13:00:18;;;;;;;0.93;0.60;;;18.50;34.10;;;;;;5096836;28;20472;-80
2022/03/27 13:02:44;;;;;;;2.07;1.27;;;18.40;34.10;;;;;;5096867;28;20476;-80
2022/03/27 13:05:11;;;;;;;3.77;1.00;;;18.40;31.80;;;;;;5096098;28;20813;-80
2022/03/27 13:07:52;;;;;;;1.70;1.60;;;18.30;31.00;;;;;;5096470;28;20801;-80
2022/03/27 13:10:20;;;;;;;3.90;0.60;;;18.10;31.60;;;;;;5096547;28;20493;-80
2022/03/27 13:12:47;;;;;;;1.47;0.97;;;18.10;31.90;;;;;;5095218;28;20793;-80
2022/03/27 13:15:14;;;;;;;0.50;0.43;;;18.10;32.00;;;;;;5095150;28;20447;-81